Time;durP1;ratioP1;P1;durP2;ratioP2;P2;SDS_P1;SDS_P2;PMS_P1;PMS_P2;Temp;Humidity;BMP_temperature;BMP_pressure;BME280_temperature;BME280_humidity;BME280_pressure;Samples;Min_cycle;Max_cycle;Signal;HPM_P1;HPM_P2
2021/10/27 00:00:40;;;;;;;8.77;4.00;;;;;;;13.16;70.55;100888.56;5064288;28;20479;-75
2021/10/27 00:03:06;;;;;;;12.53;4.60;;;;;;;13.17;70.36;100892.09;5062294;28;20480;-76
2021/10/27 00:05:33;;;;;;;5.10;4.07;;;;;;;13.34;70.25;100895.94;5062877;28;20532;-76
2021/10/27 00:08:00;;;;;;;8.73;4.77;;;;;;;13.13;71.22;100888.84;5064952;28;20447;-76
2021/10/27 00:10:26;;;;;;;8.43;4.90;;;;;;;12.98;71.51;100891.09;5064294;28;20495;-77
2021/10/27 00:12:54;;;;;;;6.53;4.00;;;;;;;13.22;71.00;100897.88;5062894;28;20480;-76
2021/10/27 00:15:21;;;;;;;8.20;4.57;;;;;;;13.33;70.91;100900.47;5063397;28;20456;-76
2021/10/27 00:17:48;;;;;;;8.43;5.63;;;;;;;13.08;71.81;100901.84;5064418;28;20441;-76
2021/10/27 00:20:16;;;;;;;10.20;5.80;;;;;;;13.11;71.88;100903.41;5063719;28;20429;-76
2021/10/27 00:22:42;;;;;;;12.30;6.33;;;;;;;13.36;71.15;100910.06;5060226;28;20471;-75
2021/10/27 00:25:10;;;;;;;12.30;6.80;;;;;;;13.38;71.13;100918.81;5062863;28;20485;-76
2021/10/27 00:27:37;;;;;;;9.93;6.03;;;;;;;13.09;72.47;100911.59;5064670;28;20500;-76
2021/10/27 00:30:06;;;;;;;10.93;7.10;;;;;;;13.15;72.27;100913.69;5063145;28;20460;-76
2021/10/27 00:32:33;;;;;;;14.10;7.90;;;;;;;13.25;72.38;100918.25;5063411;28;20521;-76
2021/10/27 00:35:00;;;;;;;8.67;6.27;;;;;;;13.24;71.99;100913.84;5063757;28;20453;-75
2021/10/27 00:37:26;;;;;;;10.20;7.17;;;;;;;13.29;71.86;100916.97;5063347;28;20497;-76
2021/10/27 00:39:54;;;;;;;11.53;7.20;;;;;;;12.88;73.64;100911.72;5064022;28;20973;-75
2021/10/27 00:42:21;;;;;;;11.93;6.73;;;;;;;13.02;73.32;100912.28;5063460;28;20516;-76
2021/10/27 00:44:48;;;;;;;10.20;7.03;;;;;;;13.32;72.39;100898.75;5063569;28;20460;-76
2021/10/27 00:47:17;;;;;;;11.37;7.00;;;;;;;13.12;72.85;100910.44;5063784;28;20473;-76
2021/10/27 00:49:45;;;;;;;9.70;6.63;;;;;;;13.36;72.47;100910.06;5063695;28;20452;-76
2021/10/27 00:52:13;;;;;;;11.00;7.40;;;;;;;13.09;73.38;100913.41;5062812;28;20477;-76
2021/10/27 00:54:42;;;;;;;11.17;6.83;;;;;;;13.30;73.04;100910.59;5059108;28;20564;-76
2021/10/27 00:57:09;;;;;;;11.37;8.10;;;;;;;13.04;73.76;100911.16;5062707;28;20500;-76
2021/10/27 00:59:40;;;;;;;12.20;9.23;;;;;;;12.80;74.83;100903.50;5063529;28;20476;-76
2021/10/27 01:02:07;;;;;;;13.83;10.27;;;;;;;12.80;75.61;100896.31;5063456;28;20492;-75
2021/10/27 01:04:35;;;;;;;14.90;11.30;;;;;;;13.27;74.08;100897.47;5063236;28;20532;-76
2021/10/27 01:07:02;;;;;;;15.83;9.70;;;;;;;13.17;74.26;100898.28;5062405;28;20484;-77
2021/10/27 01:09:29;;;;;;;17.07;11.33;;;;;;;13.06;74.72;100892.25;5063495;28;20473;-77
2021/10/27 01:11:56;;;;;;;17.03;11.80;;;;;;;13.04;75.20;100894.19;5061811;28;21081;-76
2021/10/27 01:14:32;;;;;;;17.47;12.00;;;;;;;13.25;74.44;100891.38;5062607;28;20488;-76
2021/10/27 01:16:59;;;;;;;14.70;10.27;;;;;;;13.32;74.53;100898.75;5062890;28;20515;-76
2021/10/27 01:19:26;;;;;;;15.80;12.10;;;;;;;13.22;74.68;100891.66;5063676;28;20475;-77
2021/10/27 01:21:54;;;;;;;13.50;10.30;;;;;;;13.45;74.20;100905.66;5062255;28;20495;-76
2021/10/27 01:24:21;;;;;;;13.93;11.23;;;;;;;13.32;74.59;100898.75;5062477;28;20472;-76
2021/10/27 01:26:47;;;;;;;14.77;11.23;;;;;;;13.19;75.43;100892.78;5062821;28;20555;-76
2021/10/27 01:29:14;;;;;;;15.33;11.60;;;;;;;13.37;74.93;100890.28;5062782;28;20434;-76
2021/10/27 01:31:40;;;;;;;14.40;12.23;;;;;;;13.17;75.72;100887.56;5062048;28;20523;-76
2021/10/27 01:34:08;;;;;;;16.07;11.37;;;;;;;13.33;75.10;100884.34;5062460;28;21084;-77
2021/10/27 01:36:35;;;;;;;18.37;12.30;;;;;;;13.29;75.52;100874.00;5062349;28;20496;-76
2021/10/27 01:39:03;;;;;;;17.57;12.40;;;;;;;13.17;75.63;100868.75;5062949;28;20456;-75
2021/10/27 01:41:29;;;;;;;19.03;12.93;;;;;;;13.43;75.01;100870.03;5061544;28;20512;-77
2021/10/27 01:43:58;;;;;;;15.00;12.10;;;;;;;13.16;75.86;100871.59;5062685;28;20461;-76
2021/10/27 01:46:29;;;;;;;17.63;12.20;;;;;;;13.40;75.00;100867.66;5062319;28;20476;-76
2021/10/27 01:48:56;;;;;;;17.73;12.20;;;;;;;13.51;74.80;100871.03;5057067;28;20448;-77
2021/10/27 01:51:23;;;;;;;14.57;10.80;;;;;;;13.24;76.14;100873.56;5047165;28;21036;-76
2021/10/27 01:53:50;;;;;;;17.50;11.53;;;;;;;13.42;75.43;100866.53;5062248;28;20818;-76
2021/10/27 01:56:18;;;;;;;17.30;12.03;;;;;;;13.25;75.86;100865.38;5062279;28;20552;-77
2021/10/27 01:58:44;;;;;;;15.03;10.67;;;;;;;13.32;75.79;100865.69;5062452;28;20449;-76
2021/10/27 02:01:11;;;;;;;15.87;11.50;;;;;;;13.39;75.92;100871.34;5061873;28;21163;-76
2021/10/27 02:03:38;;;;;;;16.10;12.40;;;;;;;13.34;76.19;100861.00;5062393;28;20448;-76
2021/10/27 02:06:04;;;;;;;15.43;11.90;;;;;;;13.14;77.14;100857.47;5060760;28;20538;-76
2021/10/27 02:08:31;;;;;;;15.67;11.57;;;;;;;13.18;77.41;100857.03;5062574;28;20596;-76
2021/10/27 02:10:58;;;;;;;14.93;11.57;;;;;;;13.17;77.70;100847.28;5061829;28;21008;-76
2021/10/27 02:13:26;;;;;;;20.77;12.27;;;;;;;13.10;78.11;100856.91;5061366;28;20484;-76
2021/10/27 02:15:52;;;;;;;16.77;12.53;;;;;;;13.06;78.29;100855.50;5060942;28;20515;-76
2021/10/27 02:18:19;;;;;;;19.90;13.20;;;;;;;12.94;79.06;100856.63;5062469;28;20465;-76
2021/10/27 02:20:46;;;;;;;15.90;12.70;;;;;;;12.93;79.33;100854.91;5060976;28;20528;-76
2021/10/27 02:23:13;;;;;;;21.30;14.17;;;;;;;13.02;79.28;100863.97;5062287;28;20516;-76
2021/10/27 02:25:39;;;;;;;20.57;13.37;;;;;;;12.98;79.30;100864.28;5061603;28;20476;-75
2021/10/27 02:28:06;;;;;;;22.47;14.10;;;;;;;12.81;80.40;100867.63;5062526;28;20466;-76
2021/10/27 02:30:34;;;;;;;21.27;13.47;;;;;;;12.74;80.53;100856.63;5061476;28;20500;-76
2021/10/27 02:33:02;;;;;;;20.40;14.60;;;;;;;12.74;81.22;100855.75;5061852;28;20441;-77
2021/10/27 02:35:28;;;;;;;21.70;14.73;;;;;;;12.85;81.05;100854.81;5050693;28;20475;-76
2021/10/27 02:37:55;;;;;;;19.57;15.10;;;;;;;12.86;80.90;100859.16;5062151;28;20448;-76
2021/10/27 02:40:22;;;;;;;22.37;16.57;;;;;;;13.04;80.39;100852.13;5061598;28;20445;-76
2021/10/27 02:42:49;;;;;;;21.70;16.10;;;;;;;12.93;80.47;100855.78;5061694;28;20528;-76
2021/10/27 02:45:15;;;;;;;23.53;17.90;;;;;;;12.95;80.33;100856.50;5060053;28;20506;-76
2021/10/27 02:47:44;;;;;;;19.43;17.10;;;;;;;12.83;81.15;100854.94;5062097;28;20453;-76
2021/10/27 02:50:12;;;;;;;25.57;18.13;;;;;;;12.91;80.65;100854.22;5061034;28;20441;-76
2021/10/27 02:52:39;;;;;;;21.37;17.10;;;;;;;13.04;79.89;100852.13;5061719;28;20500;-76
2021/10/27 02:55:07;;;;;;;26.00;17.37;;;;;;;13.02;80.23;100854.09;5064881;28;20488;-76
2021/10/27 02:57:34;;;;;;;22.37;17.20;;;;;;;13.12;79.87;100846.88;5066413;28;20802;-75
2021/10/27 03:00:00;;;;;;;27.30;18.10;;;;;;;12.89;80.91;100849.00;5065944;28;20503;-76
2021/10/27 03:02:27;;;;;;;24.70;18.10;;;;;;;13.08;80.01;100848.16;5065204;28;20531;-76
2021/10/27 03:04:55;;;;;;;23.40;17.03;;;;;;;13.11;79.92;100855.91;5064643;28;20449;-78
2021/10/27 03:07:21;;;;;;;25.50;17.73;;;;;;;13.04;80.14;100862.84;5064927;28;20520;-75
2021/10/27 03:09:48;;;;;;;24.40;18.27;;;;;;;12.97;80.26;100861.72;5065894;28;20449;-76
2021/10/27 03:12:15;;;;;;;19.87;16.20;;;;;;;13.03;80.40;100858.47;5063685;28;21055;-76
2021/10/27 03:14:42;;;;;;;25.03;16.80;;;;;;;13.24;79.76;100852.09;5065235;28;20936;-77
2021/10/27 03:17:09;;;;;;;24.30;17.63;;;;;;;13.25;79.70;100851.94;5065030;28;20487;-76
2021/10/27 03:19:35;;;;;;;23.77;17.50;;;;;;;13.12;80.11;100848.69;5065515;28;20477;-76
2021/10/27 03:22:04;;;;;;;24.80;16.80;;;;;;;13.19;79.54;100856.06;5064547;28;21107;-76
2021/10/27 03:24:30;;;;;;;23.60;17.10;;;;;;;13.33;79.27;100851.25;5065139;28;20464;-76
2021/10/27 03:26:57;;;;;;;19.60;16.70;;;;;;;13.30;79.58;100860.44;5064336;28;20480;-76
2021/10/27 03:29:24;;;;;;;21.37;16.57;;;;;;;13.24;79.46;100862.81;5065556;28;20504;-76
2021/10/27 03:31:50;;;;;;;19.10;16.63;;;;;;;13.20;79.73;100862.28;5064046;28;20523;-76
2021/10/27 03:34:17;;;;;;;24.43;15.67;;;;;;;13.28;79.58;100861.53;5065262;28;20571;-76
2021/10/27 03:36:44;;;;;;;23.03;16.07;;;;;;;13.25;79.64;100864.53;5059897;28;20529;-76
2021/10/27 03:39:12;;;;;;;23.90;17.53;;;;;;;13.17;79.94;100859.88;5065429;28;20443;-76
2021/10/27 03:41:39;;;;;;;23.70;18.30;;;;;;;13.32;79.84;100860.31;5044538;28;20497;-77
2021/10/27 03:44:06;;;;;;;20.27;16.63;;;;;;;13.18;79.91;100865.09;5056992;28;20522;-77
2021/10/27 03:46:33;;;;;;;23.67;18.17;;;;;;;13.22;80.23;100859.44;5064182;28;20481;-77
2021/10/27 03:49:00;;;;;;;21.07;16.70;;;;;;;13.22;80.50;100849.53;5065311;28;20476;-76
2021/10/27 03:51:26;;;;;;;24.93;17.67;;;;;;;13.28;80.20;100861.53;5063816;28;20484;-78
2021/10/27 03:53:53;;;;;;;23.67;16.70;;;;;;;13.30;79.91;100863.13;5064619;28;20488;-76
2021/10/27 03:56:21;;;;;;;25.97;17.47;;;;;;;13.21;80.54;100861.28;5064368;28;20475;-77
2021/10/27 03:58:48;;;;;;;21.00;18.47;;;;;;;13.26;80.80;100856.34;5065551;28;20531;-77
2021/10/27 04:01:14;;;;;;;19.57;17.57;;;;;;;13.26;80.61;100860.84;5064029;28;20598;-75
2021/10/27 04:03:41;;;;;;;23.87;18.17;;;;;;;13.07;81.29;100859.03;5064798;28;20476;-77
2021/10/27 04:06:08;;;;;;;21.57;18.10;;;;;;;13.04;82.26;100854.78;5061062;28;20556;-76
2021/10/27 04:08:34;;;;;;;24.87;19.23;;;;;;;13.22;81.66;100856.75;5064678;28;20488;-76
2021/10/27 04:11:01;;;;;;;26.53;21.93;;;;;;;13.18;82.10;100866.94;5063361;28;20503;-77
2021/10/27 04:13:29;;;;;;;23.23;20.47;;;;;;;13.18;82.34;100870.47;5063647;28;20452;-75
2021/10/27 04:15:56;;;;;;;30.63;19.87;;;;;;;13.23;82.22;100866.50;5063254;28;20500;-76
2021/10/27 04:18:23;;;;;;;28.83;20.80;;;;;;;13.21;82.67;100865.78;5064443;28;20444;-76
2021/10/27 04:20:49;;;;;;;24.87;20.17;;;;;;;13.16;82.57;100864.41;5062817;28;20472;-76
2021/10/27 04:23:16;;;;;;;32.77;22.20;;;;;;;13.16;82.84;100863.56;5062925;28;20579;-76
2021/10/27 04:25:43;;;;;;;25.03;18.07;;;;;;;13.18;82.68;100872.31;5048403;28;20491;-76
2021/10/27 04:28:09;;;;;;;24.57;19.30;;;;;;;13.04;83.53;100876.28;5065152;28;20429;-75
2021/10/27 04:30:37;;;;;;;27.90;22.40;;;;;;;12.91;83.72;100865.78;5063231;28;20496;-75
2021/10/27 04:33:04;;;;;;;25.33;20.33;;;;;;;13.14;82.82;100871.75;5064344;28;20437;-76
2021/10/27 04:35:31;;;;;;;30.90;21.37;;;;;;;13.15;82.44;100876.13;5062591;28;20917;-76
2021/10/27 04:37:57;;;;;;;27.77;20.40;;;;;;;13.21;82.12;100863.97;5063860;28;20480;-76
2021/10/27 04:40:24;;;;;;;27.53;20.23;;;;;;;13.20;82.26;100873.00;5063685;28;20452;-77
2021/10/27 04:42:51;;;;;;;28.17;20.07;;;;;;;13.27;81.64;100868.75;5063448;28;20528;-78
2021/10/27 04:45:19;;;;;;;23.53;19.17;;;;;;;13.25;81.88;100872.59;5061978;28;20749;-76
2021/10/27 04:47:47;;;;;;;25.57;19.10;;;;;;;13.42;81.32;100879.09;5063715;28;20926;-75
2021/10/27 04:50:15;;;;;;;29.17;21.33;;;;;;;13.36;81.90;100885.88;5063273;28;20468;-76
2021/10/27 04:52:41;;;;;;;26.40;20.67;;;;;;;13.08;82.97;100887.56;5062451;28;20471;-76
2021/10/27 04:55:08;;;;;;;24.67;18.83;;;;;;;13.27;82.72;100890.25;5063225;28;20499;-75
2021/10/27 04:57:35;;;;;;;25.07;20.67;;;;;;;13.19;83.00;100882.91;5063039;28;20444;-77
2021/10/27 05:00:01;;;;;;;26.30;19.50;;;;;;;13.33;82.73;100889.72;5062990;28;20518;-75
2021/10/27 05:02:28;;;;;;;26.97;20.50;;;;;;;13.25;83.16;100897.59;5062936;28;20480;-77
2021/10/27 05:04:56;;;;;;;29.90;20.63;;;;;;;13.25;83.47;100892.22;5062939;28;20479;-77
2021/10/27 05:07:24;;;;;;;30.47;22.60;;;;;;;13.18;83.45;100897.31;5050671;28;20492;-76
2021/10/27 05:09:53;;;;;;;28.30;21.97;;;;;;;13.19;83.59;100896.34;5056870;28;20440;-75
2021/10/27 05:12:19;;;;;;;29.37;22.57;;;;;;;13.08;83.67;100896.47;5061333;28;20551;-76
2021/10/27 05:14:46;;;;;;;31.33;21.57;;;;;;;13.01;84.61;100889.97;5062454;28;20488;-75
2021/10/27 05:17:14;;;;;;;28.43;22.57;;;;;;;13.22;83.78;100889.81;5060934;28;20477;-76
2021/10/27 05:19:42;;;;;;;31.30;23.57;;;;;;;12.94;84.53;100884.31;5046952;28;20503;-76
2021/10/27 05:22:11;;;;;;;32.37;23.33;;;;;;;13.03;84.64;100896.03;5061258;28;20524;-77
2021/10/27 05:24:40;;;;;;;28.40;22.00;;;;;;;13.03;84.85;100901.41;5061431;28;20449;-76
2021/10/27 05:27:08;;;;;;;31.13;23.83;;;;;;;13.11;84.16;100904.25;5062694;28;20438;-76
2021/10/27 05:29:35;;;;;;;29.47;23.57;;;;;;;13.06;84.46;100902.97;5061943;28;20508;-76
2021/10/27 05:32:03;;;;;;;31.50;24.50;;;;;;;12.95;85.35;100899.44;5061906;28;20519;-77
2021/10/27 05:34:30;;;;;;;35.20;25.07;;;;;;;13.10;84.50;100885.59;5061683;28;20538;-76
2021/10/27 05:36:56;;;;;;;37.47;25.40;;;;;;;13.21;84.24;100881.91;5060428;28;20567;-76
2021/10/27 05:39:24;;;;;;;30.90;24.50;;;;;;;13.10;84.36;100882.91;5051767;28;20467;-77
2021/10/27 05:41:51;;;;;;;31.43;23.53;;;;;;;13.16;84.39;100876.97;5057316;28;20564;-77
2021/10/27 05:44:19;;;;;;;29.60;23.37;;;;;;;13.31;83.78;100880.94;5057334;28;20444;-77
2021/10/27 05:46:48;;;;;;;31.60;26.00;;;;;;;13.28;83.60;100883.03;5060732;28;20472;-77
2021/10/27 05:49:21;;;;;;;38.83;25.23;;;;;;;13.31;83.46;100891.69;5059528;28;20437;-76
2021/10/27 05:51:50;;;;;;;29.90;23.70;;;;;;;13.35;83.32;100884.22;5060453;28;20469;-77
2021/10/27 05:57:03;;;;;;;31.80;23.87;;;;;;;13.18;83.45;100886.56;5061682;28;20475;-76
2021/10/27 05:59:30;;;;;;;29.07;23.23;;;;;;;13.21;83.55;100881.91;5062190;28;20786;-76
2021/10/27 06:01:56;;;;;;;34.60;25.60;;;;;;;13.36;82.74;100888.56;5061524;28;20477;-77
2021/10/27 06:04:23;;;;;;;30.93;23.80;;;;;;;13.30;82.76;100886.44;5062331;28;20499;-76
2021/10/27 06:06:50;;;;;;;29.30;23.10;;;;;;;13.25;83.01;100886.84;5061287;28;20487;-76
2021/10/27 06:09:17;;;;;;;30.17;23.57;;;;;;;13.32;82.49;100895.22;5062638;28;20436;-76
2021/10/27 06:11:43;;;;;;;25.37;21.67;;;;;;;13.39;81.95;100899.03;5060682;28;20480;-76
2021/10/27 06:14:12;;;;;;;31.77;23.87;;;;;;;13.34;82.05;100901.28;5062372;28;20449;-77
2021/10/27 06:16:39;;;;;;;33.03;23.60;;;;;;;13.41;81.65;100907.78;5061113;28;20564;-76
2021/10/27 06:19:05;;;;;;;31.10;24.10;;;;;;;13.37;81.94;100917.13;5061294;28;20948;-75
2021/10/27 06:21:33;;;;;;;25.23;21.70;;;;;;;13.54;81.24;100918.22;5061155;28;20504;-76
2021/10/27 06:24:00;;;;;;;29.90;21.93;;;;;;;13.55;80.90;100923.47;5061634;28;20491;-77
2021/10/27 06:26:27;;;;;;;28.17;22.30;;;;;;;13.73;80.57;100920.03;5060420;28;20481;-76
2021/10/27 06:29:00;;;;;;;26.53;19.97;;;;;;;13.68;80.47;100925.00;5062288;28;20425;-77
2021/10/27 06:31:33;;;;;;;25.53;20.03;;;;;;;13.69;80.18;100935.59;5061370;28;21005;-76
2021/10/27 06:34:05;;;;;;;22.80;19.70;;;;;;;13.80;79.75;100931.06;5060184;28;20448;-76
2021/10/27 06:36:38;;;;;;;24.70;18.10;;;;;;;13.63;80.32;100930.81;5061145;28;20484;-76
2021/10/27 06:39:24;;;;;;;22.37;16.83;;;;;;;13.65;80.11;100936.06;5061664;28;20526;-77
2021/10/27 06:47:22;;;;;;;23.63;17.20;;;;;;;13.47;80.62;100933.22;5056673;28;20484;-75
2021/10/27 06:49:48;;;;;;;19.63;17.50;;;;;;;13.84;79.29;100937.84;5052471;28;20548;-76
2021/10/27 06:52:15;;;;;;;24.60;16.40;;;;;;;13.90;78.91;100943.47;5059024;28;21007;-77
2021/10/27 06:54:42;;;;;;;17.43;15.57;;;;;;;13.78;79.18;100941.94;5044750;28;20493;-75
2021/10/27 06:57:08;;;;;;;18.37;14.73;;;;;;;13.83;79.12;100952.28;5041060;28;20552;-77
2021/10/27 06:59:38;;;;;;;20.07;16.10;;;;;;;13.83;79.00;100960.34;5050878;28;20465;-76
2021/10/27 07:15:59;;;;;;;15.80;11.73;;;;;;;13.87;77.83;100970.66;5061087;28;20475;-76
2021/10/27 07:18:26;;;;;;;15.70;12.43;;;;;;;13.92;77.22;100973.78;5062220;28;20474;-77
2021/10/27 07:20:54;;;;;;;21.80;11.37;;;;;;;13.99;77.09;100978.56;5060575;28;20474;-77
2021/10/27 07:23:21;;;;;;;14.27;10.17;;;;;;;13.94;76.86;100966.41;5061983;28;20445;-75
2021/10/27 07:25:56;;;;;;;11.83;10.50;;;;;;;14.06;76.85;100977.84;5060443;28;20996;-76
2021/10/27 07:28:22;;;;;;;11.67;9.80;;;;;;;14.30;75.92;100982.72;5062096;28;20490;-76
2021/10/27 07:30:49;;;;;;;13.80;9.23;;;;;;;14.20;75.69;100989.97;5061156;28;20491;-75
2021/10/27 07:33:16;;;;;;;19.23;9.53;;;;;;;14.06;76.21;100985.03;5061796;28;20445;-77
2021/10/27 07:35:46;;;;;;;13.70;7.83;;;;;;;14.15;75.78;100986.00;5059757;28;20472;-76
2021/10/27 07:40:59;;;;;;;13.03;8.97;;;;;;;14.25;75.44;100982.31;5064970;28;20530;-76
2021/10/27 07:43:28;;;;;;;13.03;8.80;;;;;;;14.38;75.07;100983.84;5065106;28;20951;-76
2021/10/27 07:45:55;;;;;;;12.27;8.03;;;;;;;14.24;74.98;100993.22;5063893;28;20499;-76
2021/10/27 07:48:22;;;;;;;12.17;7.63;;;;;;;14.44;74.55;100993.97;5065104;28;20433;-76
2021/10/27 07:50:48;;;;;;;8.10;7.10;;;;;;;14.44;74.29;100999.38;5064001;28;20507;-76
2021/10/27 07:53:17;;;;;;;10.03;6.77;;;;;;;14.37;74.54;100996.41;5064992;28;20472;-78
2021/10/27 07:55:46;;;;;;;9.10;7.50;;;;;;;14.47;74.05;101004.47;5063986;28;20552;-76
2021/10/27 07:58:13;;;;;;;11.20;7.63;;;;;;;14.56;74.25;101000.03;5064522;28;20437;-76
2021/10/27 08:00:40;;;;;;;11.50;9.10;;;;;;;14.49;74.05;100999.78;5064477;28;20469;-78
2021/10/27 08:03:07;;;;;;;11.40;8.77;;;;;;;14.57;73.96;101013.34;5064712;28;20504;-79
2021/10/27 08:05:38;;;;;;;11.13;9.63;;;;;;;14.58;73.52;100993.56;5063421;28;20473;-77
2021/10/27 08:08:07;;;;;;;10.87;8.13;;;;;;;14.69;73.25;101001.41;5064184;28;20498;-76
2021/10/27 08:10:36;;;;;;;15.30;9.10;;;;;;;14.41;73.69;101000.53;5064641;28;20476;-75
2021/10/27 08:13:04;;;;;;;12.70;9.30;;;;;;;14.48;73.82;100988.16;5063323;28;20418;-75
2021/10/27 08:15:30;;;;;;;18.23;10.43;;;;;;;14.66;73.28;101009.78;5063744;28;20492;-75
2021/10/27 08:17:57;;;;;;;14.00;9.13;;;;;;;14.73;73.23;101001.13;5064583;28;20421;-75
2021/10/27 08:20:26;;;;;;;13.07;8.73;;;;;;;14.82;72.66;101000.22;5063600;28;20480;-75
2021/10/27 08:22:55;;;;;;;12.40;7.50;;;;;;;14.59;72.79;101002.47;5063297;28;20457;-75
2021/10/27 08:25:28;;;;;;;9.40;7.60;;;;;;;14.93;72.14;100993.78;5045071;28;20453;-76
2021/10/27 08:27:57;;;;;;;9.67;7.23;;;;;;;14.82;72.45;101006.44;5046829;28;20434;-74
2021/10/27 08:30:33;;;;;;;10.77;7.17;;;;;;;15.03;71.85;101003.50;5063567;28;20516;-75
2021/10/27 08:33:01;;;;;;;8.90;7.50;;;;;;;15.47;70.30;100993.81;5064741;28;20459;-75
2021/10/27 08:35:30;;;;;;;8.63;5.90;;;;;;;14.82;71.46;101002.91;5063085;28;20499;-74
2021/10/27 08:37:57;;;;;;;11.60;5.33;;;;;;;15.08;71.08;101000.34;5063708;28;20759;-75
2021/10/27 08:40:24;;;;;;;8.43;5.83;;;;;;;15.22;70.74;100996.28;5063664;28;20460;-75
2021/10/27 08:42:51;;;;;;;5.93;4.87;;;;;;;15.23;70.51;101000.69;5058766;28;20612;-75
2021/10/27 08:45:19;;;;;;;10.87;5.60;;;;;;;15.55;69.48;101002.81;5061196;28;20455;-75
2021/10/27 08:47:48;;;;;;;11.93;4.63;;;;;;;15.94;67.93;101010.63;5062095;28;20487;-75
2021/10/27 08:50:15;;;;;;;10.00;5.50;;;;;;;15.74;68.83;101006.38;5062986;28;20436;-75
2021/10/27 08:52:43;;;;;;;6.60;4.60;;;;;;;15.86;67.92;100999.75;5061341;28;20452;-75
2021/10/27 08:55:12;;;;;;;5.47;4.30;;;;;;;15.75;67.97;101008.94;5059158;28;20500;-76
2021/10/27 08:57:40;;;;;;;4.50;3.53;;;;;;;15.81;68.42;101016.44;5047861;28;20453;-73
2021/10/27 09:00:13;;;;;;;8.03;3.67;;;;;;;15.95;67.62;101008.75;5041781;28;20521;-75
2021/10/27 09:02:54;;;;;;;7.70;4.00;;;;;;;16.04;67.89;101013.22;5042901;28;20480;-75
2021/10/27 09:05:37;;;;;;;6.33;3.90;;;;;;;15.63;68.10;101010.16;5042053;28;20458;-74
2021/10/27 09:34:05;;;;;;;5.40;3.50;;;;;;;15.39;69.23;101033.16;5118303;28;20418;-74
2021/10/27 09:36:48;;;;;;;7.00;2.83;;;;;;;15.53;69.09;101020.16;5116098;27;20490;-73
2021/10/27 09:45:08;;;;;;;5.33;2.97;;;;;;;15.28;69.13;101013.72;5116884;28;21061;-74
2021/10/27 09:47:58;;;;;;;8.40;2.90;;;;;;;15.56;68.46;101020.72;5117660;28;20461;-75
2021/10/27 10:04:24;;;;;;;5.40;3.00;;;;;;;15.35;68.54;101028.25;5097620;28;20898;-74
2021/10/27 10:06:53;;;;;;;3.67;3.10;;;;;;;15.50;67.92;101023.16;5114304;28;20563;-74
2021/10/27 10:09:20;;;;;;;4.17;2.80;;;;;;;15.52;67.47;101023.84;5117994;28;20522;-73
2021/10/27 10:11:48;;;;;;;7.80;2.93;;;;;;;15.50;67.80;101026.72;5116683;28;20467;-72
2021/10/27 10:14:16;;;;;;;5.43;2.53;;;;;;;15.35;67.94;101029.09;5117090;28;20485;-74
2021/10/27 10:16:50;;;;;;;6.77;2.80;;;;;;;15.49;67.48;101027.72;5116818;27;20466;-73
2021/10/27 10:19:18;;;;;;;3.43;2.20;;;;;;;15.76;67.04;101024.13;5117645;28;20445;-73
2021/10/27 10:21:47;;;;;;;7.97;3.00;;;;;;;15.64;66.87;101019.94;5105739;28;20550;-73
2021/10/27 10:24:31;;;;;;;4.30;2.40;;;;;;;15.84;66.34;101026.03;5104234;28;20461;-73
2021/10/27 10:26:58;;;;;;;5.33;2.70;;;;;;;15.75;66.48;101025.13;5101871;28;20846;-74
2021/10/27 10:29:54;;;;;;;7.33;3.03;;;;;;;15.80;66.34;101017.41;5103462;28;20470;-74
2021/10/27 10:32:43;;;;;;;4.20;2.10;;;;;;;15.86;66.14;101023.19;5096826;28;20532;-73
2021/10/27 10:35:16;;;;;;;4.03;2.47;;;;;;;16.05;65.92;101012.19;5091114;28;20531;-74
2021/10/27 10:37:51;;;;;;;5.07;2.80;;;;;;;16.22;65.73;101006.94;5095940;28;20456;-74
2021/10/27 10:40:57;;;;;;;8.90;2.67;;;;;;;16.30;64.83;100998.88;5093474;28;20442;-73
2021/10/27 10:44:01;;;;;;;5.53;2.47;;;;;;;16.56;64.18;101012.34;5096558;28;20546;-73
2021/10/27 11:22:46;;;;;;;6.00;2.13;;;;;;;16.79;62.29;101000.94;5079207;28;20506;-76
2021/10/27 11:25:19;;;;;;;2.77;1.80;;;;;;;16.38;63.50;100990.81;5080088;28;20462;-75
2021/10/27 11:37:16;;;;;;;3.80;1.97;;;;;;;16.70;62.27;100992.84;5080995;28;20489;-76
2021/10/27 11:39:33;;;;;;;3.73;1.90;;;;;;;17.26;61.61;100989.66;5061205;28;20447;-77
2021/10/27 11:42:08;;;;;;;6.13;2.50;;;;;;;16.84;61.75;100982.44;5058963;28;20464;-76
2021/10/27 11:44:43;;;;;;;3.73;2.17;;;;;;;16.96;62.40;100991.97;5060385;28;20486;-77
2021/10/27 11:47:10;;;;;;;5.80;2.80;;;;;;;17.05;62.17;100985.56;5062759;28;20471;-76
2021/10/27 11:49:40;;;;;;;4.07;2.80;;;;;;;17.20;61.54;100988.44;5059483;28;20480;-78
2021/10/27 11:52:07;;;;;;;6.80;3.03;;;;;;;16.67;62.70;100986.94;5059775;28;20476;-75
2021/10/27 11:54:36;;;;;;;7.63;2.80;;;;;;;16.96;61.94;100991.09;5060151;28;20453;-77
2021/10/27 11:57:04;;;;;;;4.63;2.40;;;;;;;17.01;62.04;100978.81;5058733;28;20480;-77
2021/10/27 11:59:43;;;;;;;7.37;4.63;;;;;;;17.07;61.56;100971.88;5060365;28;20429;-74
2021/10/27 12:02:09;;;;;;;5.50;2.60;;;;;;;17.33;61.15;100970.94;5060202;28;20484;-77
2021/10/27 12:04:37;;;;;;;6.90;3.40;;;;;;;17.40;60.79;100977.34;5075679;28;20486;-77
2021/10/27 12:07:11;;;;;;;4.77;2.30;;;;;;;17.41;60.88;100971.78;5065774;28;20476;-76
2021/10/27 12:09:49;;;;;;;5.97;2.73;;;;;;;17.01;61.43;100967.13;5060253;28;20484;-76
2021/10/27 12:15:28;;;;;;;4.13;2.20;;;;;;;16.84;62.16;100971.63;5054086;28;20457;-75
2021/10/27 12:18:02;;;;;;;3.50;2.17;;;;;;;17.10;61.68;100971.56;5061029;28;20437;-74
2021/10/27 12:20:38;;;;;;;8.17;2.10;;;;;;;16.76;61.55;100965.16;5059326;28;20476;-75
2021/10/27 12:23:06;;;;;;;4.23;2.20;;;;;;;16.68;62.10;100957.06;5059830;28;20460;-76
2021/10/27 12:25:34;;;;;;;7.60;2.53;;;;;;;17.40;60.45;100958.44;5059127;28;20472;-77
2021/10/27 12:28:04;;;;;;;3.43;2.03;;;;;;;17.25;60.57;100956.38;5059383;28;21009;-77
2021/10/27 12:30:43;;;;;;;3.07;2.13;;;;;;;17.25;60.71;100947.41;5058346;28;20479;-76
2021/10/27 12:33:10;;;;;;;5.50;2.43;;;;;;;16.96;61.19;100954.16;5067945;28;20458;-76
2021/10/27 12:35:37;;;;;;;7.03;3.13;;;;;;;16.84;61.61;100959.00;5063112;28;20480;-76
2021/10/27 12:38:13;;;;;;;6.57;2.80;;;;;;;17.18;60.43;100943.72;5075932;28;20453;-77
2021/10/27 12:40:44;;;;;;;4.33;2.33;;;;;;;17.35;61.01;100947.28;5077930;28;20468;-77
2021/10/27 12:43:12;;;;;;;5.33;2.30;;;;;;;17.00;61.12;100949.25;5078287;28;20504;-77
2021/10/27 12:45:42;;;;;;;6.47;2.50;;;;;;;16.82;61.25;100935.81;5078585;28;20529;-77
2021/10/27 12:48:10;;;;;;;3.23;2.53;;;;;;;16.81;61.28;100939.56;5080028;28;20799;-77
2021/10/27 12:50:39;;;;;;;3.87;2.10;;;;;;;17.33;60.55;100938.50;5077798;28;20502;-77
2021/10/27 12:53:08;;;;;;;6.63;2.37;;;;;;;16.89;61.57;100934.19;5063207;28;20473;-75
2021/10/27 12:55:38;;;;;;;7.10;2.53;;;;;;;16.79;61.50;100926.22;5072293;28;20631;-77
2021/10/27 12:58:09;;;;;;;5.20;2.70;;;;;;;16.84;61.83;100928.44;5079871;28;20443;-75
2021/10/27 13:00:50;;;;;;;9.87;3.33;;;;;;;16.86;61.85;100932.66;5065099;28;20488;-77
2021/10/27 13:03:25;;;;;;;4.57;2.70;;;;;;;16.97;61.55;100920.69;5059817;28;20437;-76
2021/10/27 13:05:57;;;;;;;5.53;3.03;;;;;;;16.99;61.96;100928.66;5059094;28;20479;-77
2021/10/27 13:11:19;;;;;;;3.10;2.63;;;;;;;16.96;62.10;100923.56;5065631;28;20476;-77
2021/10/27 13:14:13;;;;;;;8.47;2.73;;;;;;;16.91;62.52;100927.63;5080229;28;20432;-77
2021/10/27 13:19:47;;;;;;;4.67;2.67;;;;;;;16.91;62.76;100924.91;5079542;28;20422;-76
2021/10/27 13:22:27;;;;;;;5.63;2.53;;;;;;;17.15;61.77;100912.47;5079001;28;20475;-77
2021/10/27 13:30:29;;;;;;;5.60;2.87;;;;;;;16.96;62.43;100928.97;5072257;28;20487;-77
2021/10/27 13:32:59;;;;;;;7.30;3.33;;;;;;;17.00;62.57;100920.38;5074315;28;20539;-76